Time;durP1;ratioP1;P1;durP2;ratioP2;P2;SDS_P1;SDS_P2;PMS_P1;PMS_P2;Temp;Humidity;BMP_temperature;BMP_pressure;BME280_temperature;BME280_humidity;BME280_pressure;Samples;Min_cycle;Max_cycle;Signal;HPM_P1;HPM_P2
2021/05/20 00:00:42;;;;;;;;;;;;;;;20.16;56.03;101231.44;2104895;28;3858;-36
2021/05/20 00:01:43;;;;;;;;;;;;;;;20.16;55.82;101228.59;2105289;28;4013;-34
2021/05/20 00:02:44;;;;;;;;;;;;;;;20.15;55.76;101228.91;2104921;28;4024;-31
2021/05/20 00:03:48;;;;;;;;;;;;;;;20.16;55.86;101227.78;2105540;28;4237;-31
2021/05/20 00:04:49;;;;;;;;;;;;;;;20.16;55.78;101230.63;2103549;28;4006;-33
2021/05/20 00:05:50;;;;;;;;;;;;;;;20.16;55.72;101234.28;2103988;28;3786;-30
2021/05/20 00:06:51;;;;;;;;;;;;;;;20.16;55.76;101237.13;2105236;28;4996;-39
2021/05/20 00:07:53;;;;;;;;;;;;;;;20.16;55.84;101237.13;2105244;28;3846;-35
2021/05/20 00:08:54;;;;;;;;;;;;;;;20.16;55.68;101234.28;2105084;28;4066;-33
2021/05/20 00:09:55;;;;;;;;;;;;;;;20.16;55.66;101230.63;2105029;28;3833;-37
2021/05/20 00:10:56;;;;;;;;;;;;;;;20.15;55.72;101226.09;2105394;28;3962;-30
2021/05/20 00:11:58;;;;;;;;;;;;;;;20.15;55.92;101226.94;2105072;28;4064;-39
2021/05/20 00:12:59;;;;;;;;;;;;;;;20.17;55.77;101232.28;2105352;28;4005;-34
2021/05/20 00:14:00;;;;;;;;;;;;;;;20.17;55.91;101229.44;2105515;28;3850;-30
2021/05/20 00:15:01;;;;;;;;;;;;;;;20.16;56.06;101234.28;2105133;28;3932;-35
2021/05/20 00:16:03;;;;;;;;;;;;;;;20.16;55.88;101228.59;2105093;28;4258;-34
2021/05/20 00:17:04;;;;;;;;;;;;;;;20.16;55.88;101231.44;2105339;28;3849;-33
2021/05/20 00:18:06;;;;;;;;;;;;;;;20.17;55.87;101232.28;2104906;28;4011;-34
2021/05/20 00:19:07;;;;;;;;;;;;;;;20.16;55.86;101228.59;2104311;28;3919;-40
2021/05/20 00:20:09;;;;;;;;;;;;;;;20.17;55.80;101235.09;2105378;28;3990;-38
2021/05/20 00:21:10;;;;;;;;;;;;;;;20.16;55.82;101228.59;2104905;28;4047;-34
2021/05/20 00:22:11;;;;;;;;;;;;;;;20.17;55.82;101229.44;2104810;28;4079;-35
2021/05/20 00:23:12;;;;;;;;;;;;;;;20.16;55.85;101228.59;2105180;28;3970;-35
2021/05/20 00:24:13;;;;;;;;;;;;;;;20.17;55.90;101223.75;2104570;28;3859;-30
2021/05/20 00:25:15;;;;;;;;;;;;;;;20.16;55.73;101231.44;2104907;28;3824;-32
2021/05/20 00:26:16;;;;;;;;;;;;;;;20.16;55.88;101233.44;2103952;28;3928;-37
2021/05/20 00:27:18;;;;;;;;;;;;;;;20.17;55.80;101232.28;2105106;28;3830;-35
2021/05/20 00:28:19;;;;;;;;;;;;;;;20.17;55.81;101229.44;2105252;28;3964;-35
2021/05/20 00:29:20;;;;;;;;;;;;;;;20.17;55.84;101237.94;2104497;28;6053;-33
2021/05/20 00:30:21;;;;;;;;;;;;;;;20.18;55.70;101240.47;2104785;28;3998;-36
2021/05/20 00:31:22;;;;;;;;;;;;;;;20.17;55.82;101238.78;2104151;28;4479;-35
2021/05/20 00:32:24;;;;;;;;;;;;;;;20.17;55.69;101237.94;2104601;28;4337;-34
2021/05/20 00:33:26;;;;;;;;;;;;;;;20.17;55.77;101238.78;2104731;28;4046;-33
2021/05/20 00:34:27;;;;;;;;;;;;;;;20.17;55.74;101235.09;2105179;28;4121;-33
2021/05/20 00:35:28;;;;;;;;;;;;;;;20.18;55.65;101237.63;2104471;28;4032;-38
2021/05/20 00:36:29;;;;;;;;;;;;;;;20.19;55.62;101241.31;2105115;28;4093;-37
2021/05/20 00:37:31;;;;;;;;;;;;;;;20.18;55.63;101239.59;2105140;28;4058;-32
2021/05/20 00:38:32;;;;;;;;;;;;;;;20.18;55.72;101234.78;2103978;28;4090;-30
2021/05/20 00:39:33;;;;;;;;;;;;;;;20.18;55.64;101231.94;2104533;28;4211;-38
2021/05/20 00:40:34;;;;;;;;;;;;;;;20.18;55.74;101236.78;2105050;28;3887;-35
2021/05/20 00:41:36;;;;;;;;;;;;;;;20.19;55.60;101244.13;2104232;28;3913;-36
2021/05/20 00:42:37;;;;;;;;;;;;;;;20.18;55.53;101246.16;2104743;28;3901;-36
2021/05/20 00:43:38;;;;;;;;;;;;;;;20.18;55.54;101242.44;2105539;28;4154;-34
2021/05/20 00:44:39;;;;;;;;;;;;;;;20.18;55.54;101246.16;2105005;28;4078;-34
2021/05/20 00:45:40;;;;;;;;;;;;;;;20.18;55.65;101253.81;2104553;28;4957;-35
2021/05/20 00:46:42;;;;;;;;;;;;;;;20.19;55.60;101249.81;2104512;28;4248;-34
2021/05/20 00:47:43;;;;;;;;;;;;;;;20.19;55.53;101252.66;2104890;28;4121;-32
2021/05/20 00:48:44;;;;;;;;;;;;;;;20.17;55.49;101244.47;2104066;28;4121;-36
2021/05/20 00:49:45;;;;;;;;;;;;;;;20.18;55.52;101245.28;2104600;28;4015;-36
2021/05/20 00:50:47;;;;;;;;;;;;;;;20.16;55.66;101245.66;2104051;28;4061;-32
2021/05/20 00:51:48;;;;;;;;;;;;;;;20.17;55.46;101246.47;2105015;28;4074;-36
2021/05/20 00:52:49;;;;;;;;;;;;;;;20.17;55.44;101240.78;2105496;28;3884;-33
2021/05/20 00:53:50;;;;;;;;;;;;;;;20.17;55.70;101255.81;2104714;28;3844;-32
2021/05/20 00:54:52;;;;;;;;;;;;;;;20.16;55.50;101248.50;2104158;28;4046;-34
2021/05/20 00:55:53;;;;;;;;;;;;;;;20.17;55.47;101255.81;2104408;28;4054;-34
2021/05/20 00:56:54;;;;;;;;;;;;;;;20.17;55.66;101257.84;2104877;28;3893;-37
2021/05/20 00:57:55;;;;;;;;;;;;;;;20.17;55.58;101246.47;2104792;28;4013;-31
2021/05/20 00:58:57;;;;;;;;;;;;;;;20.17;55.73;101263.53;2103929;28;4085;-38
2021/05/20 00:59:58;;;;;;;;;;;;;;;20.17;55.56;101257.84;2104165;28;3868;-36
2021/05/20 01:00:59;;;;;;;;;;;;;;;20.17;55.73;101261.50;2105488;28;3836;-38
2021/05/20 01:02:00;;;;;;;;;;;;;;;20.18;55.56;101262.34;2104867;28;3870;-32
2021/05/20 01:03:01;;;;;;;;;;;;;;;20.18;55.52;101259.50;2104801;28;3853;-35
2021/05/20 01:04:03;;;;;;;;;;;;;;;20.18;55.53;101270.84;2104564;28;3847;-35
2021/05/20 01:05:04;;;;;;;;;;;;;;;20.17;55.54;101263.53;2100314;28;4219;-37
2021/05/20 01:06:05;;;;;;;;;;;;;;;20.17;55.58;101264.34;2101125;28;3849;-34
2021/05/20 01:07:06;;;;;;;;;;;;;;;20.18;55.60;101271.72;2103893;28;4091;-31
2021/05/20 01:08:08;;;;;;;;;;;;;;;20.17;55.66;101264.34;2104379;28;3972;-37
2021/05/20 01:09:09;;;;;;;;;;;;;;;20.17;55.63;101275.72;2105106;28;4044;-35
2021/05/20 01:10:10;;;;;;;;;;;;;;;20.17;55.73;101267.19;2104281;28;4051;-36
2021/05/20 01:11:12;;;;;;;;;;;;;;;20.17;55.67;101264.34;2104293;28;4023;-35
2021/05/20 01:12:13;;;;;;;;;;;;;;;20.17;55.74;101269.19;2105214;28;4115;-34
2021/05/20 01:13:14;;;;;;;;;;;;;;;20.18;55.63;101260.34;2105047;28;3988;-32
2021/05/20 01:14:15;;;;;;;;;;;;;;;20.17;55.58;101269.19;2104715;28;4000;-33
2021/05/20 01:15:17;;;;;;;;;;;;;;;20.17;55.59;101260.69;2104462;28;3843;-38
2021/05/20 01:16:18;;;;;;;;;;;;;;;20.17;55.61;101258.66;2104673;28;3987;-32
2021/05/20 01:17:19;;;;;;;;;;;;;;;20.18;55.70;101259.50;2105853;28;3829;-33
2021/05/20 01:18:20;;;;;;;;;;;;;;;20.17;55.34;101260.69;2104081;28;4016;-36
2021/05/20 01:19:22;;;;;;;;;;;;;;;20.17;55.71;101260.69;2104662;28;4753;-38
2021/05/20 01:20:23;;;;;;;;;;;;;;;20.17;55.63;101264.34;2104512;28;4024;-35
2021/05/20 01:21:24;;;;;;;;;;;;;;;20.18;55.52;101268.03;2104703;28;4064;-37
2021/05/20 01:22:27;;;;;;;;;;;;;;;20.16;55.65;101264.69;2104998;28;4106;-32
2021/05/20 01:23:29;;;;;;;;;;;;;;;20.17;55.48;101266.34;2105312;28;3862;-38
2021/05/20 01:24:30;;;;;;;;;;;;;;;20.16;55.50;101259.84;2104535;28;4053;-33
2021/05/20 01:25:31;;;;;;;;;;;;;;;20.16;55.57;101254.16;2104912;28;4025;-36
2021/05/20 01:26:32;;;;;;;;;;;;;;;20.15;55.51;101263.00;2102550;28;4083;-40
2021/05/20 01:27:33;;;;;;;;;;;;;;;20.16;55.57;101267.53;2102300;28;3892;-33
2021/05/20 01:28:35;;;;;;;;;;;;;;;20.16;55.51;101267.53;2103145;28;4246;-32
2021/05/20 01:29:36;;;;;;;;;;;;;;;20.16;55.60;101274.06;2102891;28;3875;-34
2021/05/20 01:30:37;;;;;;;;;;;;;;;20.17;55.54;101274.88;2102188;28;3894;-33
2021/05/20 01:31:38;;;;;;;;;;;;;;;20.17;55.52;101270.03;2103613;28;4054;-36
2021/05/20 01:32:40;;;;;;;;;;;;;;;20.16;55.56;101276.06;2103424;28;4031;-32
2021/05/20 01:33:41;;;;;;;;;;;;;;;20.16;55.52;101264.69;2097819;28;3881;-34
2021/05/20 01:34:42;;;;;;;;;;;;;;;20.16;55.50;101264.69;2104545;28;3982;-36
2021/05/20 01:35:44;;;;;;;;;;;;;;;20.16;55.36;101267.53;2104338;28;3987;-36
2021/05/20 01:36:45;;;;;;;;;;;;;;;20.15;55.52;101266.72;2104143;28;4143;-39
2021/05/20 01:37:46;;;;;;;;;;;;;;;20.15;55.59;101280.91;2105018;28;4188;-35
2021/05/20 01:38:48;;;;;;;;;;;;;;;20.16;55.49;101273.22;2104993;28;4017;-33
2021/05/20 01:39:50;;;;;;;;;;;;;;;20.16;55.51;101274.06;2104321;28;4121;-33
2021/05/20 01:40:51;;;;;;;;;;;;;;;20.17;55.41;101269.19;2104665;28;3903;-32
2021/05/20 01:41:52;;;;;;;;;;;;;;;20.17;55.57;101272.03;2106331;28;3993;-31
2021/05/20 01:42:53;;;;;;;;;;;;;;;20.16;55.48;101274.06;2105913;28;3903;-37
2021/05/20 01:43:54;;;;;;;;;;;;;;;20.17;55.63;101274.88;2106266;28;3952;-35
2021/05/20 01:44:56;;;;;;;;;;;;;;;20.17;55.47;101272.03;2106433;28;3881;-33
2021/05/20 01:46:00;;;;;;;;;;;;;;;20.16;55.59;101276.06;2106768;28;3837;-33
2021/05/20 01:47:01;;;;;;;;;;;;;;;20.17;55.57;101272.88;2105974;28;4086;-33
2021/05/20 01:48:03;;;;;;;;;;;;;;;20.16;55.55;101268.38;2105384;28;4060;-30
2021/05/20 01:49:09;;;;;;;;;;;;;;;20.17;55.50;101274.88;2105815;28;3843;-32
2021/05/20 01:50:11;;;;;;;;;;;;;;;20.15;55.53;101266.72;2106473;28;3978;-31
2021/05/20 01:51:12;;;;;;;;;;;;;;;20.16;55.50;101276.06;2106066;28;4149;-31
2021/05/20 01:52:13;;;;;;;;;;;;;;;20.17;55.67;101274.88;2105351;28;4095;-35
2021/05/20 01:53:14;;;;;;;;;;;;;;;20.16;55.63;101273.22;2106373;28;3967;-33
2021/05/20 01:54:15;;;;;;;;;;;;;;;20.16;55.51;101271.22;2105261;28;3849;-38
2021/05/20 01:55:17;;;;;;;;;;;;;;;20.17;55.49;101280.56;2105630;28;4168;-35
2021/05/20 01:56:18;;;;;;;;;;;;;;;20.16;55.59;101264.69;2106115;28;4099;-33
2021/05/20 01:57:19;;;;;;;;;;;;;;;20.16;55.61;101270.38;2105550;28;4947;-37
2021/05/20 01:58:20;;;;;;;;;;;;;;;20.17;55.59;101267.19;2106050;28;3780;-31
2021/05/20 01:59:21;;;;;;;;;;;;;;;20.17;55.48;101277.72;2106459;28;3940;-35
2021/05/20 02:00:23;;;;;;;;;;;;;;;20.16;55.44;101268.38;2105892;28;4267;-39
2021/05/20 02:01:24;;;;;;;;;;;;;;;20.17;55.41;101274.88;2105698;28;4075;-38
2021/05/20 02:02:25;;;;;;;;;;;;;;;20.18;55.46;101270.84;2105789;28;4116;-33
2021/05/20 02:03:27;;;;;;;;;;;;;;;20.16;55.39;101273.22;2097390;28;4130;-33
2021/05/20 02:04:28;;;;;;;;;;;;;;;20.16;55.48;101273.22;2096785;28;4073;-33
2021/05/20 02:05:29;;;;;;;;;;;;;;;20.15;55.27;101283.75;2105997;28;4071;-31
2021/05/20 02:06:31;;;;;;;;;;;;;;;20.15;55.48;101277.22;2105953;28;4044;-37
2021/05/20 02:07:32;;;;;;;;;;;;;;;20.14;55.44;101276.38;2106165;28;3927;-33
2021/05/20 02:08:33;;;;;;;;;;;;;;;20.15;55.58;101278.06;2105414;28;3910;-33
2021/05/20 02:09:34;;;;;;;;;;;;;;;20.16;55.62;101278.91;2105875;28;3906;-33
2021/05/20 02:10:36;;;;;;;;;;;;;;;20.14;55.68;101276.38;2105622;28;4035;-31
2021/05/20 02:11:37;;;;;;;;;;;;;;;20.16;55.62;101278.91;2104838;28;4041;-32
2021/05/20 02:12:38;;;;;;;;;;;;;;;20.16;55.54;101278.91;2105348;28;3933;-36
2021/05/20 02:13:39;;;;;;;;;;;;;;;20.16;55.58;101282.56;2106588;28;4057;-34
2021/05/20 02:14:41;;;;;;;;;;;;;;;20.16;55.59;101281.75;2105764;28;3898;-34
2021/05/20 02:15:42;;;;;;;;;;;;;;;20.17;55.61;101286.25;2106144;28;3881;-32
2021/05/20 02:16:43;;;;;;;;;;;;;;;20.16;55.44;101278.91;2105557;28;3902;-33
2021/05/20 02:17:44;;;;;;;;;;;;;;;20.15;55.52;101289.44;2105614;28;3861;-33
2021/05/20 02:18:46;;;;;;;;;;;;;;;20.16;55.61;101279.72;2105285;28;3896;-35
2021/05/20 02:19:47;;;;;;;;;;;;;;;20.15;55.65;101278.06;2106077;28;3909;-29
2021/05/20 02:20:48;;;;;;;;;;;;;;;20.16;55.61;101274.06;2105890;28;4022;-25
2021/05/20 02:21:49;;;;;;;;;;;;;;;20.16;55.57;101284.59;2104797;28;3917;-34
2021/05/20 02:22:51;;;;;;;;;;;;;;;20.16;55.53;101281.75;2105234;28;4033;-33
2021/05/20 02:23:52;;;;;;;;;;;;;;;20.16;55.70;101284.59;2106427;28;4065;-31
2021/05/20 02:24:53;;;;;;;;;;;;;;;20.15;55.54;101280.91;2105180;28;4062;-34
2021/05/20 02:25:55;;;;;;;;;;;;;;;20.15;55.64;101274.38;2105907;28;4025;-30
2021/05/20 02:26:56;;;;;;;;;;;;;;;20.17;55.58;101283.41;2104793;28;3979;-32
2021/05/20 02:27:57;;;;;;;;;;;;;;;20.16;55.79;101278.91;2106056;28;3932;-28
2021/05/20 02:28:58;;;;;;;;;;;;;;;20.16;55.61;101279.72;2105984;28;4024;-32
2021/05/20 02:30:00;;;;;;;;;;;;;;;20.16;55.81;101276.91;2105128;28;3870;-31
2021/05/20 02:31:01;;;;;;;;;;;;;;;20.15;55.61;101278.06;2105916;28;4061;-30
2021/05/20 02:32:02;;;;;;;;;;;;;;;20.15;55.64;101286.59;2105758;28;3929;-41
2021/05/20 02:33:03;;;;;;;;;;;;;;;20.14;55.66;101287.75;2104381;28;3922;-34
2021/05/20 02:34:05;;;;;;;;;;;;;;;20.15;55.63;101280.06;2106135;28;4076;-34
2021/05/20 02:35:06;;;;;;;;;;;;;;;20.15;55.56;101283.75;2106449;28;3814;-31
2021/05/20 02:36:07;;;;;;;;;;;;;;;20.16;55.71;101285.41;2105433;28;3992;-32
2021/05/20 02:37:08;;;;;;;;;;;;;;;20.15;55.63;101289.44;2105721;28;4004;-39
2021/05/20 02:38:10;;;;;;;;;;;;;;;20.16;55.64;101287.44;2104781;28;4017;-29
2021/05/20 02:39:11;;;;;;;;;;;;;;;20.14;55.68;101279.22;2105765;28;3997;-28
2021/05/20 02:40:12;;;;;;;;;;;;;;;20.14;55.57;101281.25;2106355;28;4006;-32
2021/05/20 02:41:13;;;;;;;;;;;;;;;20.14;55.69;101286.91;2105444;28;4027;-30
2021/05/20 02:42:15;;;;;;;;;;;;;;;20.14;55.59;101282.06;2105210;28;3999;-29
2021/05/20 02:43:16;;;;;;;;;;;;;;;20.14;55.57;101287.75;2105467;28;4024;-32
2021/05/20 02:44:17;;;;;;;;;;;;;;;20.14;55.61;101282.06;2105246;28;3982;-34
2021/05/20 02:45:19;;;;;;;;;;;;;;;20.15;55.78;101288.56;2105599;28;4026;-33
2021/05/20 02:46:20;;;;;;;;;;;;;;;20.15;55.85;101288.56;2105420;28;4096;-33
2021/05/20 02:47:21;;;;;;;;;;;;;;;20.15;55.88;101289.44;2105248;28;3780;-31
2021/05/20 02:48:22;;;;;;;;;;;;;;;20.15;56.02;101291.41;2105227;28;4724;-38
2021/05/20 02:49:24;;;;;;;;;;;;;;;20.15;56.11;101295.13;2105194;28;3827;-31
2021/05/20 02:50:25;;;;;;;;;;;;;;;20.16;55.94;101293.09;2105465;28;4056;-36
2021/05/20 02:51:26;;;;;;;;;;;;;;;20.15;56.00;101292.28;2105195;28;4051;-30
2021/05/20 02:52:29;;;;;;;;;;;;;;;20.15;55.99;101300.81;2104993;28;3880;-32
2021/05/20 02:53:30;;;;;;;;;;;;;;;20.15;56.14;101297.97;2105470;28;4110;-32
2021/05/20 02:54:31;;;;;;;;;;;;;;;20.15;56.08;101291.41;2105827;28;3982;-31
2021/05/20 02:55:32;;;;;;;;;;;;;;;20.14;55.96;101293.44;2105476;28;4080;-30
2021/05/20 02:56:34;;;;;;;;;;;;;;;20.15;55.96;101295.13;2106096;28;4145;-32
2021/05/20 02:57:35;;;;;;;;;;;;;;;20.15;56.09;101297.09;2105068;28;4046;-31
2021/05/20 02:58:37;;;;;;;;;;;;;;;20.15;56.01;101294.25;2104699;28;3959;-34
2021/05/20 02:59:39;;;;;;;;;;;;;;;20.15;56.26;101294.25;2104904;28;3879;-31
2021/05/20 03:00:40;;;;;;;;;;;;;;;20.16;56.06;101295.94;2105890;28;4048;-35
2021/05/20 03:01:46;;;;;;;;;;;;;;;20.16;56.09;101295.94;2105531;28;4029;-34
2021/05/20 03:02:47;;;;;;;;;;;;;;;20.17;56.12;101297.59;2104389;28;3784;-37
2021/05/20 03:03:48;;;;;;;;;;;;;;;20.16;56.23;101296.78;2102407;28;4092;-33
2021/05/20 03:04:50;;;;;;;;;;;;;;;20.15;56.28;101297.97;2098677;28;4013;-35
2021/05/20 03:05:53;;;;;;;;;;;;;;;20.16;56.20;101295.94;2106329;28;4165;-36
2021/05/20 03:06:54;;;;;;;;;;;;;;;20.16;56.05;101301.63;2104766;28;4231;-36
2021/05/20 03:07:55;;;;;;;;;;;;;;;20.16;56.19;101299.63;2105179;28;4152;-33
2021/05/20 03:08:57;;;;;;;;;;;;;;;20.17;56.17;101297.59;2105979;28;4242;-34
2021/05/20 03:09:58;;;;;;;;;;;;;;;20.16;56.08;101293.94;2104639;28;4038;-33
2021/05/20 03:10:59;;;;;;;;;;;;;;;20.16;56.13;101296.78;2105404;28;3839;-35
2021/05/20 03:12:01;;;;;;;;;;;;;;;20.16;56.12;101298.78;2106040;28;4026;-32
2021/05/20 03:13:02;;;;;;;;;;;;;;;20.16;56.09;101296.78;2105254;28;3991;-33
2021/05/20 03:14:03;;;;;;;;;;;;;;;20.16;56.18;101296.78;2104989;28;4437;-33
2021/05/20 03:15:04;;;;;;;;;;;;;;;20.16;56.07;101301.63;2105340;28;4047;-33
2021/05/20 03:16:06;;;;;;;;;;;;;;;20.17;56.11;101304.13;2104604;28;4074;-37
2021/05/20 03:17:11;;;;;;;;;;;;;;;20.16;56.15;101293.94;2105744;28;4099;-35
2021/05/20 03:18:12;;;;;;;;;;;;;;;20.17;56.23;101303.28;2104412;28;3991;-35
2021/05/20 03:19:13;;;;;;;;;;;;;;;20.16;56.13;101310.16;2105142;28;4013;-33
2021/05/20 03:20:15;;;;;;;;;;;;;;;20.16;56.21;101301.63;2105072;28;4005;-37
2021/05/20 03:21:16;;;;;;;;;;;;;;;20.16;56.26;101304.47;2104665;28;3818;-33
2021/05/20 03:22:17;;;;;;;;;;;;;;;20.16;56.21;101302.47;2105794;28;4923;-34
2021/05/20 03:23:19;;;;;;;;;;;;;;;20.16;56.33;101308.16;2103420;28;4005;-33
2021/05/20 03:24:20;;;;;;;;;;;;;;;20.16;56.31;101310.97;2104976;28;3977;-36
2021/05/20 03:25:21;;;;;;;;;;;;;;;20.16;56.23;101308.16;2105393;28;3951;-33
2021/05/20 03:26:22;;;;;;;;;;;;;;;20.17;56.19;101308.97;2103978;28;3896;-36
2021/05/20 03:27:23;;;;;;;;;;;;;;;20.16;56.14;101319.50;2103401;28;4092;-33
2021/05/20 03:28:25;;;;;;;;;;;;;;;20.16;56.28;101313.00;2102689;28;4037;-29
2021/05/20 03:29:26;;;;;;;;;;;;;;;20.16;56.13;101313.00;2102885;28;4030;-36
2021/05/20 03:30:27;;;;;;;;;;;;;;;20.17;56.21;101318.31;2105518;28;4071;-38
2021/05/20 03:31:28;;;;;;;;;;;;;;;20.18;56.18;101307.78;2104896;28;4036;-32
2021/05/20 03:32:29;;;;;;;;;;;;;;;20.17;56.29;101311.81;2102522;28;4050;-33
2021/05/20 03:33:31;;;;;;;;;;;;;;;20.17;56.33;101314.66;2104353;28;3895;-37
2021/05/20 03:34:32;;;;;;;;;;;;;;;20.17;56.38;101312.66;2106097;28;4048;-33
2021/05/20 03:35:33;;;;;;;;;;;;;;;20.17;56.31;101314.66;2105031;28;3997;-33
2021/05/20 03:36:35;;;;;;;;;;;;;;;20.16;56.48;101305.31;2105601;28;3893;-35
2021/05/20 03:37:36;;;;;;;;;;;;;;;20.17;56.50;101317.50;2104099;28;6185;-30
2021/05/20 03:38:38;;;;;;;;;;;;;;;20.17;56.46;101315.47;2104773;28;4052;-35
2021/05/20 03:39:39;;;;;;;;;;;;;;;20.17;56.48;101312.66;2103924;28;3866;-33
2021/05/20 03:40:40;;;;;;;;;;;;;;;20.16;56.20;101313.81;2104994;28;4187;-33
2021/05/20 03:41:41;;;;;;;;;;;;;;;20.15;56.21;101314.16;2105268;28;4064;-32
2021/05/20 03:42:43;;;;;;;;;;;;;;;20.14;56.19;101316.16;2105670;28;4028;-31
2021/05/20 03:43:44;;;;;;;;;;;;;;;20.12;55.95;101311.97;2104839;28;4024;-35
2021/05/20 03:45:00;;;;;;;;;;;;;;;20.03;55.21;101314.84;2105860;28;4093;-32
2021/05/20 03:46:02;;;;;;;;;;;;;;;19.96;54.94;101308.84;2105551;28;4001;-33
2021/05/20 03:47:03;;;;;;;;;;;;;;;19.92;54.96;101314.31;2105440;28;4047;-34
2021/05/20 03:48:04;;;;;;;;;;;;;;;19.88;54.26;101319.00;2105448;28;3990;-34
2021/05/20 03:49:05;;;;;;;;;;;;;;;19.85;53.79;101307.47;2105971;28;4019;-35
2021/05/20 03:50:09;;;;;;;;;;;;;;;19.81;53.59;101310.16;2105405;28;3822;-33
2021/05/20 03:51:10;;;;;;;;;;;;;;;19.77;53.31;101312.81;2104676;28;3854;-36
2021/05/20 03:52:12;;;;;;;;;;;;;;;19.76;53.34;101321.66;2105743;28;4044;-33
2021/05/20 03:53:13;;;;;;;;;;;;;;;19.75;53.08;101320.00;2105445;28;3888;-33
2021/05/20 03:54:14;;;;;;;;;;;;;;;19.73;53.04;101311.81;2105002;28;4022;-34
2021/05/20 03:55:15;;;;;;;;;;;;;;;19.71;52.70;101313.31;2105250;28;3816;-36
2021/05/20 03:56:17;;;;;;;;;;;;;;;19.70;52.81;101321.00;2105512;28;4082;-40
2021/05/20 03:57:18;;;;;;;;;;;;;;;19.68;52.53;101313.97;2105690;28;4023;-31
2021/05/20 03:58:20;;;;;;;;;;;;;;;19.67;52.31;101321.66;2105659;28;3839;-35
2021/05/20 03:59:21;;;;;;;;;;;;;;;19.66;52.49;101311.47;2104294;28;3790;-33
2021/05/20 04:00:22;;;;;;;;;;;;;;;19.66;52.38;101322.00;2104768;28;4739;-36
2021/05/20 04:01:23;;;;;;;;;;;;;;;19.64;52.16;101318.63;2105568;28;4058;-33
2021/05/20 04:02:24;;;;;;;;;;;;;;;19.62;51.95;101326.63;2105319;28;4189;-37
2021/05/20 04:03:26;;;;;;;;;;;;;;;19.59;52.03;101322.44;2105157;28;3909;-31
2021/05/20 04:04:27;;;;;;;;;;;;;;;19.58;52.17;101323.63;2104384;28;3894;-38
2021/05/20 04:05:28;;;;;;;;;;;;;;;19.58;52.28;101317.94;2105407;28;3875;-31
2021/05/20 04:06:30;;;;;;;;;;;;;;;19.57;52.10;101314.28;2105610;28;3956;-33
2021/05/20 04:07:31;;;;;;;;;;;;;;;19.56;51.76;101323.94;2105308;28;3945;-33
2021/05/20 04:08:32;;;;;;;;;;;;;;;19.54;51.83;101319.75;2105566;28;3841;-35
2021/05/20 04:09:33;;;;;;;;;;;;;;;19.54;51.99;101323.44;2105042;28;4042;-38
2021/05/20 04:10:34;;;;;;;;;;;;;;;19.53;51.82;101329.47;2105201;28;3881;-33
2021/05/20 04:11:36;;;;;;;;;;;;;;;19.51;51.66;101326.09;2104824;28;3887;-36
2021/05/20 04:12:37;;;;;;;;;;;;;;;19.49;51.73;101329.28;2105444;28;4033;-38
2021/05/20 04:13:38;;;;;;;;;;;;;;;19.49;51.58;101325.59;2105235;28;3928;-37
2021/05/20 04:14:39;;;;;;;;;;;;;;;19.48;51.23;101324.75;2104334;28;4001;-30
2021/05/20 04:15:41;;;;;;;;;;;;;;;19.46;51.50;101324.28;2105189;28;4035;-33
2021/05/20 04:16:42;;;;;;;;;;;;;;;19.46;51.62;101329.09;2105033;28;3836;-38
2021/05/20 04:17:43;;;;;;;;;;;;;;;19.44;51.17;101334.28;2105482;28;4051;-37
2021/05/20 04:18:45;;;;;;;;;;;;;;;19.42;51.31;101325.25;2105104;28;3894;-34
2021/05/20 04:19:46;;;;;;;;;;;;;;;19.41;51.50;101327.28;2104449;28;3870;-36
2021/05/20 04:20:47;;;;;;;;;;;;;;;19.41;51.38;101340.59;2105270;28;3886;-35
2021/05/20 04:21:48;;;;;;;;;;;;;;;19.41;51.22;101329.25;2105649;28;4035;-36
2021/05/20 04:22:50;;;;;;;;;;;;;;;19.39;51.25;101328.75;2105695;28;3829;-34
2021/05/20 04:23:51;;;;;;;;;;;;;;;19.39;51.26;101335.25;2105299;28;4028;-34
2021/05/20 04:24:52;;;;;;;;;;;;;;;19.39;51.21;101340.13;2104118;28;3863;-36
2021/05/20 04:25:53;;;;;;;;;;;;;;;19.38;51.26;101341.25;2104994;28;4012;-36
2021/05/20 04:26:55;;;;;;;;;;;;;;;19.37;51.34;101346.09;2103864;28;3910;-35
2021/05/20 04:27:56;;;;;;;;;;;;;;;19.34;51.25;101344.75;2105429;28;5092;-34
2021/05/20 04:28:57;;;;;;;;;;;;;;;19.33;51.15;101343.09;2105369;28;3855;-35
2021/05/20 04:29:58;;;;;;;;;;;;;;;19.33;51.13;101348.78;2104565;28;3857;-37
2021/05/20 04:30:59;;;;;;;;;;;;;;;19.34;51.17;101343.94;2105554;28;4009;-29
2021/05/20 04:32:01;;;;;;;;;;;;;;;19.32;51.19;101343.41;2105327;28;4067;-33
2021/05/20 04:33:02;;;;;;;;;;;;;;;19.33;51.06;101347.94;2104814;28;4000;-38
2021/05/20 04:34:03;;;;;;;;;;;;;;;19.31;51.26;101342.56;2105832;28;3983;-36
2021/05/20 04:35:05;;;;;;;;;;;;;;;19.31;51.16;101350.25;2104709;28;4042;-33
2021/05/20 04:36:06;;;;;;;;;;;;;;;19.29;51.07;101364.75;2104128;28;4021;-30
2021/05/20 04:37:08;;;;;;;;;;;;;;;19.28;51.10;101348.91;2105310;28;3875;-34
2021/05/20 04:38:09;;;;;;;;;;;;;;;19.28;51.10;101356.59;2105286;28;4000;-34
2021/05/20 04:39:11;;;;;;;;;;;;;;;19.28;51.21;101362.28;2104251;28;4311;-36
2021/05/20 04:40:12;;;;;;;;;;;;;;;19.27;51.26;101367.13;2105227;28;4043;-35
2021/05/20 04:41:13;;;;;;;;;;;;;;;19.25;51.08;101357.25;2104495;28;4195;-38
2021/05/20 04:42:14;;;;;;;;;;;;;;;19.26;51.42;101364.59;2105173;28;3896;-33
2021/05/20 04:43:16;;;;;;;;;;;;;;;19.30;51.37;101359.94;2105683;28;3875;-35
2021/05/20 04:44:17;;;;;;;;;;;;;;;19.32;51.35;101358.44;2104735;28;3892;-34
2021/05/20 04:45:18;;;;;;;;;;;;;;;19.35;51.41;101359.78;2104943;28;3990;-30
2021/05/20 04:46:19;;;;;;;;;;;;;;;19.38;51.42;101364.81;2104091;28;4022;-33
2021/05/20 04:47:20;;;;;;;;;;;;;;;19.40;51.37;101364.47;2104943;28;3881;-32
2021/05/20 04:48:22;;;;;;;;;;;;;;;19.39;51.52;101366.47;2105166;28;4880;-38
2021/05/20 04:49:24;;;;;;;;;;;;;;;19.40;51.48;101359.63;2105275;28;4016;-31
2021/05/20 04:50:25;;;;;;;;;;;;;;;19.41;51.55;101364.16;2105534;28;4063;-33
2021/05/20 04:51:26;;;;;;;;;;;;;;;19.42;51.59;101365.00;2104706;28;4062;-32
2021/05/20 04:52:27;;;;;;;;;;;;;;;19.42;51.66;101365.81;2104920;28;3916;-35
2021/05/20 04:53:28;;;;;;;;;;;;;;;19.42;51.48;101365.81;2104815;28;3875;-33
2021/05/20 04:54:30;;;;;;;;;;;;;;;19.42;51.54;101365.81;2104410;28;4089;-33
2021/05/20 04:55:31;;;;;;;;;;;;;;;19.44;51.73;101371.19;2095889;28;4055;-32
2021/05/20 04:56:32;;;;;;;;;;;;;;;19.43;51.72;101364.63;2095981;28;4060;-42
2021/05/20 04:57:33;;;;;;;;;;;;;;;19.45;51.59;101367.16;2104492;28;4060;-36
2021/05/20 04:58:35;;;;;;;;;;;;;;;19.44;51.73;101366.34;2105055;28;4172;-34
2021/05/20 04:59:36;;;;;;;;;;;;;;;19.45;51.71;101370.00;2104879;28;3877;-35
2021/05/20 05:00:37;;;;;;;;;;;;;;;19.44;51.76;101374.84;2104410;28;4063;-33
2021/05/20 05:01:38;;;;;;;;;;;;;;;19.46;51.78;101378.19;2105751;28;4157;-34
2021/05/20 05:02:39;;;;;;;;;;;;;;;19.45;51.80;101370.00;2104670;28;4043;-34
2021/05/20 05:03:41;;;;;;;;;;;;;;;19.44;51.97;101365.50;2104817;28;4099;-31
2021/05/20 05:04:42;;;;;;;;;;;;;;;19.44;51.90;101372.00;2105024;28;4061;-36
2021/05/20 05:05:43;;;;;;;;;;;;;;;19.45;52.02;101362.31;2105067;28;4151;-39
2021/05/20 05:06:44;;;;;;;;;;;;;;;19.46;51.93;101372.53;2104684;28;3921;-33
2021/05/20 05:07:46;;;;;;;;;;;;;;;19.47;51.99;101371.34;2104225;28;4058;-35
2021/05/20 05:08:47;;;;;;;;;;;;;;;19.47;52.01;101371.34;2104488;28;3879;-35
2021/05/20 05:09:48;;;;;;;;;;;;;;;19.49;51.97;101369.03;2104537;28;4033;-29
2021/05/20 05:10:49;;;;;;;;;;;;;;;19.49;51.86;101374.69;2105346;28;4045;-34
2021/05/20 05:11:51;;;;;;;;;;;;;;;19.50;52.04;101376.34;2105108;28;4025;-37
2021/05/20 05:12:52;;;;;;;;;;;;;;;19.51;51.93;101372.34;2105009;28;3902;-36
2021/05/20 05:13:53;;;;;;;;;;;;;;;19.52;52.01;101373.19;2104730;28;3887;-33
2021/05/20 05:14:55;;;;;;;;;;;;;;;19.51;52.04;101375.19;2104709;28;4044;-35
2021/05/20 05:15:57;;;;;;;;;;;;;;;19.53;51.94;101375.69;2105304;28;3874;-32
2021/05/20 05:16:58;;;;;;;;;;;;;;;19.53;52.03;101372.03;2106332;28;4121;-35
2021/05/20 05:17:59;;;;;;;;;;;;;;;19.53;52.04;101374.88;2104666;28;4050;-30
2021/05/20 05:19:00;;;;;;;;;;;;;;;19.54;52.07;101373.69;2106303;28;3866;-32
2021/05/20 05:20:02;;;;;;;;;;;;;;;19.52;52.14;101371.19;2106919;28;3839;-36